createdAt,value
2019-04-01T00:01:16.627Z,31.85
2019-04-01T00:03:49.307Z,31.60
2019-04-01T00:06:16.975Z,33.00
2019-04-01T00:08:44.965Z,32.20
2019-04-01T00:11:12.764Z,33.92
2019-04-01T00:13:40.672Z,31.17
2019-04-01T00:16:08.767Z,33.95
2019-04-01T00:18:37.630Z,33.40
2019-04-01T00:21:05.439Z,36.50
2019-04-01T00:23:36.020Z,35.90
2019-04-01T00:26:04.245Z,33.30
2019-04-01T00:28:34.243Z,31.80
2019-04-01T00:31:02.806Z,31.07
2019-04-01T00:33:30.592Z,30.12
2019-04-01T00:36:00.085Z,29.35
2019-04-01T00:38:32.262Z,30.57
2019-04-01T00:41:00.334Z,31.70
2019-04-01T00:43:59.642Z,28.87
2019-04-01T00:46:28.576Z,30.20
2019-04-01T00:48:56.680Z,25.97
2019-04-01T00:51:24.682Z,26.68
2019-04-01T00:53:53.669Z,28.65
2019-04-01T00:56:21.508Z,29.05
2019-04-01T00:58:49.379Z,27.22
2019-04-01T01:01:17.718Z,29.10
2019-04-01T01:03:49.100Z,29.63
2019-04-01T01:06:17.073Z,29.02
2019-04-01T01:08:44.893Z,28.80
2019-04-01T01:11:12.816Z,29.63
2019-04-01T01:13:43.058Z,30.88
2019-04-01T01:16:11.050Z,29.92
2019-04-01T01:18:40.398Z,27.58
2019-04-01T01:21:08.453Z,29.35
2019-04-01T01:23:36.245Z,29.05
2019-04-01T01:26:04.126Z,30.72
2019-04-01T01:28:32.053Z,27.67
2019-04-01T01:30:59.714Z,27.90
2019-04-01T01:33:31.014Z,29.85
2019-04-01T01:35:58.831Z,30.00
2019-04-01T01:38:29.779Z,27.98
2019-04-01T01:40:57.805Z,29.50
2019-04-01T01:43:25.719Z,28.47
2019-04-01T01:45:53.738Z,30.12
2019-04-01T01:48:22.682Z,28.67
2019-04-01T01:50:50.543Z,27.80
2019-04-01T01:53:18.745Z,27.15
2019-04-01T01:55:46.425Z,26.20
2019-04-01T01:58:14.150Z,23.42
2019-04-01T02:00:42.208Z,22.62
2019-04-01T02:03:12.751Z,22.05
2019-04-01T02:05:40.539Z,22.75
2019-04-01T02:08:12.196Z,22.07
2019-04-01T02:10:40.135Z,20.82
2019-04-01T02:13:09.459Z,20.68
2019-04-01T02:15:37.442Z,19.67
2019-04-01T02:18:05.252Z,21.33
2019-04-01T02:20:34.361Z,21.90
2019-04-01T02:23:02.307Z,20.12
2019-04-01T02:25:30.106Z,19.85
2019-04-01T02:27:57.991Z,18.82
2019-04-01T02:30:25.876Z,21.48
2019-04-01T02:32:56.569Z,21.75
2019-04-01T02:35:25.637Z,21.37
2019-04-01T02:37:53.473Z,21.12
2019-04-01T02:40:22.111Z,19.85
2019-04-01T02:42:50.964Z,19.00
2019-04-01T02:45:18.815Z,17.50
2019-04-01T02:47:46.992Z,18.12
2019-04-01T02:50:14.908Z,17.42
2019-04-01T02:52:43.078Z,17.20
2019-04-01T02:55:11.171Z,19.17
2019-04-01T02:57:38.925Z,17.85
2019-04-01T03:00:08.233Z,16.77
2019-04-01T03:02:38.346Z,17.27
2019-04-01T03:05:06.258Z,18.07
2019-04-01T03:07:34.087Z,18.67
2019-04-01T03:10:01.937Z,17.37
2019-04-01T03:12:30.126Z,18.07
2019-04-01T03:14:58.092Z,18.00
2019-04-01T03:17:26.495Z,17.48
2019-04-01T03:19:54.229Z,16.75
2019-04-01T03:22:22.087Z,16.87
2019-04-01T03:24:51.094Z,17.70
2019-04-01T03:27:19.044Z,17.95
2019-04-01T03:29:46.872Z,19.32
2019-04-01T03:32:14.879Z,19.10
2019-04-01T03:34:47.349Z,19.37
2019-04-01T03:37:15.524Z,16.77
2019-04-01T03:39:44.908Z,17.65
2019-04-01T03:42:12.805Z,19.00
2019-04-01T03:44:41.545Z,19.80
2019-04-01T03:47:09.306Z,19.42
2019-04-01T03:49:37.258Z,18.85
2019-04-01T03:52:09.816Z,19.35
2019-04-01T03:54:34.588Z,19.70
2019-04-01T03:57:02.783Z,19.92
2019-04-01T03:59:30.739Z,21.27
2019-04-01T04:01:58.550Z,19.42
2019-04-01T04:04:26.270Z,20.70
2019-04-01T04:06:54.338Z,22.07
2019-04-01T04:09:22.214Z,24.10
2019-04-01T04:11:50.000Z,22.32
2019-04-01T04:14:17.959Z,22.70
2019-04-01T04:16:45.750Z,21.52
2019-04-01T04:19:13.667Z,22.98
2019-04-01T04:21:41.487Z,23.20
2019-04-01T04:24:09.430Z,23.47
2019-04-01T04:26:37.232Z,21.80
2019-04-01T04:29:08.430Z,22.60
2019-04-01T04:31:38.418Z,22.55
2019-04-01T04:34:06.146Z,22.20
2019-04-01T04:36:34.066Z,21.70
2019-04-01T04:39:05.222Z,22.15
2019-04-01T04:41:32.925Z,23.12
2019-04-01T04:44:01.807Z,23.83
2019-04-01T04:46:29.565Z,25.68
2019-04-01T04:48:59.534Z,22.95
2019-04-01T04:51:27.356Z,25.02
2019-04-01T04:53:55.076Z,24.45
2019-04-01T04:56:23.116Z,22.95
2019-04-01T04:58:52.653Z,22.70
2019-04-01T05:01:20.593Z,25.55
2019-04-01T05:03:49.320Z,22.90
2019-04-01T05:06:20.964Z,25.48
2019-04-01T05:08:49.819Z,24.95
2019-04-01T05:11:17.748Z,23.83
2019-04-01T05:13:52.154Z,24.40
2019-04-01T05:16:20.004Z,24.77
2019-04-01T05:18:50.602Z,24.70
2019-04-01T05:21:18.382Z,24.60
2019-04-01T05:23:53.716Z,23.55
2019-04-01T05:26:24.486Z,24.45
2019-04-01T05:28:54.062Z,25.62
2019-04-01T05:31:24.519Z,27.07
2019-04-01T05:33:55.963Z,25.48
2019-04-01T05:36:24.951Z,23.65
2019-04-01T05:38:53.000Z,26.40
2019-04-01T05:41:20.848Z,25.23
2019-04-01T05:43:48.905Z,25.88
2019-04-01T05:46:16.996Z,27.10
2019-04-01T05:48:45.244Z,27.37
2019-04-01T05:51:13.176Z,27.02
2019-04-01T05:53:44.944Z,26.48
2019-04-01T05:56:13.001Z,26.50
2019-04-01T05:58:40.984Z,27.75
2019-04-01T06:01:15.778Z,27.10
2019-04-01T06:03:44.888Z,26.37
2019-04-01T06:06:12.653Z,27.15
2019-04-01T06:08:41.872Z,26.95
2019-04-01T06:11:09.934Z,28.12
2019-04-01T06:13:39.126Z,29.57
2019-04-01T06:16:06.958Z,26.20
2019-04-01T06:18:36.900Z,27.77
2019-04-01T06:21:05.373Z,28.75
2019-04-01T06:23:36.767Z,29.00
2019-04-01T06:26:06.076Z,28.92
2019-04-01T06:28:34.238Z,28.30
2019-04-01T06:31:02.357Z,28.98
2019-04-01T06:33:32.284Z,27.32
2019-04-01T06:36:00.140Z,27.90
2019-04-01T06:38:28.403Z,27.75
2019-04-01T06:40:56.180Z,27.15
2019-04-01T06:43:24.763Z,30.45
2019-04-01T06:45:52.759Z,31.15
2019-04-01T06:48:20.650Z,31.05
2019-04-01T06:50:48.572Z,31.90
2019-04-01T06:53:16.332Z,30.77
2019-04-01T06:55:45.432Z,31.95
2019-04-01T06:58:13.864Z,33.60
2019-04-01T07:00:43.258Z,31.60
2019-04-01T07:03:11.720Z,34.43
2019-04-01T07:05:39.772Z,33.80
2019-04-01T07:08:07.586Z,30.82
2019-04-01T07:10:35.500Z,34.78
2019-04-01T07:13:04.645Z,32.70
2019-04-01T07:15:33.699Z,33.00
2019-04-01T07:18:01.520Z,34.83
2019-04-01T07:20:29.412Z,36.83
2019-04-01T07:22:57.301Z,34.88
2019-04-01T07:25:25.927Z,33.38
2019-04-01T07:27:57.124Z,34.13
2019-04-01T07:30:25.075Z,34.38
2019-04-01T07:32:52.848Z,34.15
2019-04-01T07:35:20.755Z,34.30
2019-04-01T07:37:50.639Z,32.70
2019-04-01T07:40:18.600Z,34.45
2019-04-01T07:42:46.501Z,34.33
2019-04-01T07:45:14.469Z,34.15
2019-04-01T07:47:43.530Z,35.13
2019-04-01T07:50:12.823Z,33.73
2019-04-01T07:52:40.903Z,35.75
2019-04-01T07:55:09.098Z,33.83
2019-04-01T07:57:37.919Z,35.10
2019-04-01T08:00:06.677Z,36.05
2019-04-01T08:02:36.073Z,35.35
2019-04-01T08:05:04.876Z,33.07
2019-04-01T08:07:33.276Z,32.07
2019-04-01T08:10:01.646Z,32.10
2019-04-01T08:12:30.198Z,32.77
2019-04-01T08:14:59.684Z,29.97
2019-04-01T08:17:30.307Z,29.70
2019-04-01T08:19:58.110Z,28.70
2019-04-01T08:22:26.259Z,32.20
2019-04-01T08:24:54.445Z,28.63
2019-04-01T08:27:22.625Z,30.43
2019-04-01T08:29:50.585Z,29.23
2019-04-01T08:32:18.480Z,29.40
2019-04-01T08:34:46.317Z,30.20
2019-04-01T08:37:15.529Z,29.50
2019-04-01T08:39:43.979Z,28.87
2019-04-01T08:42:12.299Z,28.00
2019-04-01T08:44:40.946Z,27.10
2019-04-01T08:47:08.980Z,25.03
2019-04-01T08:49:37.208Z,25.33
2019-04-01T08:52:05.041Z,21.97
2019-04-01T08:54:36.324Z,23.17
2019-04-01T08:57:04.728Z,21.30
2019-04-01T08:59:32.927Z,23.83
2019-04-01T09:02:00.732Z,23.23
2019-04-01T09:04:30.317Z,22.10
2019-04-01T09:06:58.028Z,21.93
2019-04-01T09:09:28.621Z,22.70
2019-04-01T09:11:58.136Z,22.40
2019-04-01T09:14:30.517Z,24.00
2019-04-01T09:17:00.401Z,20.70
2019-04-01T09:19:28.403Z,21.17
2019-04-01T09:21:56.251Z,21.73
2019-04-01T09:24:24.117Z,22.60
2019-04-01T09:26:51.979Z,20.60
2019-04-01T09:29:20.993Z,21.50
2019-04-01T09:31:48.987Z,19.13
2019-04-01T09:34:16.742Z,19.70
2019-04-01T09:36:44.678Z,20.50
2019-04-01T09:39:12.532Z,21.47
2019-04-01T09:41:40.243Z,20.27
2019-04-01T09:44:08.893Z,21.53
2019-04-01T09:46:36.904Z,19.80
2019-04-01T09:49:06.963Z,18.90
2019-04-01T09:51:47.839Z,18.83
2019-04-01T09:54:05.152Z,16.93
2019-04-01T09:56:32.862Z,14.93
2019-04-01T09:59:01.563Z,14.73
2019-04-01T10:01:29.507Z,16.83
2019-04-01T10:03:57.339Z,15.53
2019-04-01T10:06:25.338Z,13.90
2019-04-01T10:09:01.554Z,13.87
2019-04-01T10:11:31.036Z,13.37
2019-04-01T10:13:59.905Z,12.57
2019-04-01T10:16:27.743Z,12.53
2019-04-01T10:18:58.265Z,13.53
2019-04-01T10:21:25.973Z,13.10
2019-04-01T10:23:54.288Z,13.10
2019-04-01T10:26:24.197Z,13.10
2019-04-01T10:28:53.233Z,12.33
2019-04-01T10:31:21.018Z,13.50
2019-04-01T10:33:48.749Z,11.60
2019-04-01T10:36:16.834Z,12.30
2019-04-01T10:38:47.124Z,12.60
2019-04-01T10:41:16.208Z,12.57
2019-04-01T10:43:44.007Z,11.40
2019-04-01T10:46:12.622Z,12.97
2019-04-01T10:48:41.913Z,13.10
2019-04-01T10:51:09.752Z,12.73
2019-04-01T10:53:38.553Z,12.97
2019-04-01T10:56:06.703Z,12.40
2019-04-01T10:58:34.653Z,12.20
2019-04-01T11:01:02.562Z,11.83
2019-04-01T11:03:30.295Z,11.27
2019-04-01T11:05:59.543Z,13.37
2019-04-01T11:08:27.878Z,11.40
2019-04-01T11:10:57.897Z,11.67
2019-04-01T11:13:25.548Z,11.73
2019-04-01T11:15:53.351Z,11.97
2019-04-01T11:18:23.026Z,11.50
2019-04-01T11:20:50.765Z,12.63
2019-04-01T11:23:19.871Z,12.90
2019-04-01T11:25:48.057Z,13.07
2019-04-01T11:28:16.003Z,11.70
2019-04-01T11:30:44.691Z,11.80
2019-04-01T11:33:12.982Z,12.40
2019-04-01T11:35:41.295Z,10.73
2019-04-01T11:38:09.539Z,12.57
2019-04-01T11:40:38.935Z,11.17
2019-04-01T11:43:07.374Z,11.97
2019-04-01T11:45:35.562Z,12.50
2019-04-01T11:48:03.622Z,13.37
2019-04-01T11:50:31.578Z,13.73
2019-04-01T11:52:59.575Z,12.67
2019-04-01T11:55:27.339Z,13.57
2019-04-01T11:57:55.245Z,13.27
2019-04-01T12:00:26.219Z,13.30
2019-04-01T12:02:53.020Z,12.90
2019-04-01T12:05:21.894Z,12.83
2019-04-01T12:07:50.348Z,12.33
2019-04-01T12:10:19.189Z,12.60
2019-04-01T12:12:47.653Z,13.93
2019-04-01T12:15:15.967Z,12.10
2019-04-01T12:17:43.857Z,12.27
2019-04-01T12:20:12.511Z,12.47
2019-04-01T12:22:40.841Z,12.80
2019-04-01T12:25:10.377Z,14.60
2019-04-01T12:27:41.610Z,12.40
2019-04-01T12:30:12.230Z,12.43
2019-04-01T12:32:39.922Z,11.87
2019-04-01T12:35:09.341Z,12.20
2019-04-01T12:37:37.419Z,12.17
2019-04-01T12:40:05.577Z,13.63
2019-04-01T12:42:34.823Z,13.10
2019-04-01T12:45:05.191Z,13.17
2019-04-01T12:47:33.015Z,12.70
2019-04-01T12:50:01.009Z,12.67
2019-04-01T12:52:29.160Z,12.33
2019-04-01T12:55:00.684Z,11.53
2019-04-01T12:57:26.985Z,11.50
2019-04-01T12:59:54.774Z,12.60
2019-04-01T13:02:22.735Z,11.90
2019-04-01T13:04:51.509Z,11.50
2019-04-01T13:07:20.647Z,13.10
2019-04-01T13:09:48.784Z,12.77
2019-04-01T13:12:17.843Z,11.47
2019-04-01T13:14:46.070Z,11.57
2019-04-01T13:17:14.406Z,11.93
2019-04-01T13:19:42.241Z,13.23
2019-04-01T13:22:10.152Z,13.10
2019-04-01T13:24:37.949Z,12.80
2019-04-01T13:27:09.117Z,11.73
2019-04-01T13:29:36.957Z,11.33
2019-04-01T13:32:06.142Z,10.47
2019-04-01T13:34:34.016Z,10.40
2019-04-01T13:37:01.769Z,10.93
2019-04-01T13:39:29.779Z,11.00
2019-04-01T13:41:57.543Z,10.13
2019-04-01T13:44:36.276Z,9.93
2019-04-01T13:46:56.038Z,11.37
2019-04-01T13:49:25.958Z,12.47
2019-04-01T13:51:53.967Z,11.67
2019-04-01T13:54:21.773Z,12.00
2019-04-01T13:56:49.707Z,12.00
2019-04-01T13:59:17.686Z,12.03
2019-04-01T14:01:45.840Z,11.60
2019-04-01T14:04:13.737Z,11.83
2019-04-01T14:06:41.683Z,12.43
2019-04-01T14:09:09.599Z,13.33
2019-04-01T14:11:37.711Z,12.30
2019-04-01T14:14:05.647Z,13.07
2019-04-01T14:16:33.518Z,12.47
2019-04-01T14:19:01.731Z,12.30
2019-04-01T14:21:29.884Z,12.10
2019-04-01T14:23:59.925Z,12.80
2019-04-01T14:26:27.707Z,13.17
2019-04-01T14:28:55.698Z,12.33
2019-04-01T14:31:23.490Z,12.20
2019-04-01T14:33:53.173Z,13.90
2019-04-01T14:36:20.927Z,13.70
2019-04-01T14:38:49.033Z,12.93
2019-04-01T14:41:17.537Z,12.20
2019-04-01T14:43:45.379Z,11.50
2019-04-01T14:46:13.166Z,12.20
2019-04-01T14:48:41.870Z,12.17
2019-04-01T14:51:09.738Z,13.23
2019-04-01T14:53:37.942Z,12.50
2019-04-01T14:56:06.689Z,12.80
2019-04-01T14:58:36.576Z,13.63
2019-04-01T15:01:08.073Z,14.20
2019-04-01T15:03:36.084Z,14.00
2019-04-01T15:06:04.272Z,13.63
2019-04-01T15:08:32.544Z,12.77
2019-04-01T15:11:00.436Z,13.00
2019-04-01T15:13:29.493Z,13.27
2019-04-01T15:15:57.862Z,15.53
2019-04-01T15:18:26.135Z,14.80
2019-04-01T15:20:53.783Z,14.37
2019-04-01T15:23:24.972Z,15.37
2019-04-01T15:25:54.448Z,15.10
2019-04-01T15:28:23.253Z,17.97
2019-04-01T15:30:51.151Z,14.90
2019-04-01T15:33:18.876Z,20.13
2019-04-01T15:35:46.737Z,16.53
2019-04-01T15:38:14.761Z,16.13
2019-04-01T15:40:44.201Z,16.37
2019-04-01T15:43:12.471Z,16.00
2019-04-01T15:45:40.709Z,16.20
2019-04-01T15:48:08.696Z,16.70
2019-04-01T15:50:38.855Z,15.60
2019-04-01T15:53:09.583Z,16.03
2019-04-01T15:55:37.589Z,17.53
2019-04-01T15:58:05.525Z,15.47
2019-04-01T16:00:33.812Z,15.37
2019-04-01T16:03:02.050Z,16.60
2019-04-01T16:05:31.143Z,16.50
2019-04-01T16:07:58.913Z,18.80
2019-04-01T16:10:29.354Z,14.98
2019-04-01T16:12:56.675Z,16.70
2019-04-01T16:15:24.623Z,16.23
2019-04-01T16:17:54.015Z,17.17
2019-04-01T16:20:22.944Z,15.38
2019-04-01T16:22:51.018Z,15.53
2019-04-01T16:25:18.924Z,16.07
2019-04-01T16:27:46.754Z,15.35
2019-04-01T16:30:14.690Z,16.35
2019-04-01T16:32:42.374Z,16.17
2019-04-01T16:35:10.600Z,15.65
2019-04-01T16:37:39.466Z,15.10
2019-04-01T16:40:09.058Z,15.78
2019-04-01T16:42:38.873Z,16.20
2019-04-01T16:45:07.956Z,15.80
2019-04-01T16:47:35.972Z,16.37
2019-04-01T16:50:06.593Z,15.25
2019-04-01T16:52:37.151Z,14.80
2019-04-01T16:55:07.726Z,15.10
2019-04-01T16:57:35.561Z,14.05
2019-04-01T17:00:06.251Z,14.85
2019-04-01T17:02:34.254Z,14.40
2019-04-01T17:05:02.023Z,16.17
2019-04-01T17:07:32.852Z,16.15
2019-04-01T17:10:00.666Z,15.60
2019-04-01T17:12:28.539Z,14.23
2019-04-01T17:14:57.254Z,16.77
2019-04-01T17:17:25.053Z,16.23
2019-04-01T17:19:52.843Z,16.20
2019-04-01T17:22:21.127Z,14.55
2019-04-01T17:24:48.981Z,16.25
2019-04-01T17:27:16.930Z,14.65
2019-04-01T17:29:51.886Z,15.65
2019-04-01T17:32:20.034Z,15.25
2019-04-01T17:34:47.985Z,16.48
2019-04-01T17:37:15.814Z,15.65
2019-04-01T17:39:43.940Z,16.67
2019-04-01T17:42:12.635Z,17.67
2019-04-01T17:44:42.286Z,18.15
2019-04-01T17:47:10.531Z,17.87
2019-04-01T17:49:42.870Z,20.37
2019-04-01T17:52:10.837Z,17.02
2019-04-01T17:54:47.994Z,15.40
2019-04-01T17:57:16.475Z,15.10
2019-04-01T17:59:46.597Z,16.27
2019-04-01T18:02:23.877Z,16.55
2019-04-01T18:04:55.130Z,15.98
2019-04-01T18:07:24.494Z,15.10
2019-04-01T18:09:52.762Z,15.35
2019-04-01T18:12:20.747Z,15.75
2019-04-01T18:14:48.635Z,16.48
2019-04-01T18:17:18.535Z,17.07
2019-04-01T18:19:47.229Z,16.45
2019-04-01T18:22:18.465Z,15.78
2019-04-01T18:24:46.692Z,17.37
2019-04-01T18:27:20.801Z,17.45
2019-04-01T18:29:48.941Z,15.72
2019-04-01T18:32:16.826Z,15.65
2019-04-01T18:34:44.906Z,16.52
2019-04-01T18:37:12.914Z,16.50
2019-04-01T18:39:48.424Z,16.20
2019-04-01T18:42:11.828Z,19.00
2019-04-01T18:44:41.837Z,18.50
2019-04-01T18:47:09.721Z,19.07
2019-04-01T18:49:38.754Z,19.17
2019-04-01T18:52:09.080Z,20.00
2019-04-01T18:54:38.704Z,18.90
2019-04-01T18:57:06.400Z,18.90
2019-04-01T18:59:37.941Z,18.35
2019-04-01T19:02:05.980Z,19.52
2019-04-01T19:04:35.780Z,17.37
2019-04-01T19:07:04.837Z,18.35
2019-04-01T19:09:33.265Z,19.15
2019-04-01T19:12:04.072Z,22.05
2019-04-01T19:14:33.506Z,17.80
2019-04-01T19:17:01.318Z,17.80
2019-04-01T19:19:29.896Z,18.92
2019-04-01T19:22:02.319Z,19.55
2019-04-01T19:24:30.194Z,19.30
2019-04-01T19:26:58.211Z,20.15
2019-04-01T19:29:27.420Z,18.40
2019-04-01T19:31:55.856Z,18.70
2019-04-01T19:34:27.256Z,18.62
2019-04-01T19:36:55.258Z,18.32
2019-04-01T19:39:23.580Z,19.55
2019-04-01T19:41:53.044Z,20.08
2019-04-01T19:44:21.216Z,18.15
2019-04-01T19:46:48.894Z,18.23
2019-04-01T19:49:16.988Z,18.05
2019-04-01T19:51:44.843Z,18.32
2019-04-01T19:54:13.681Z,16.77
2019-04-01T19:56:44.337Z,17.87
2019-04-01T19:59:13.935Z,19.42
2019-04-01T20:01:42.178Z,19.30
2019-04-01T20:04:09.982Z,18.30
2019-04-01T20:06:40.659Z,19.45
2019-04-01T20:09:07.935Z,17.87
2019-04-01T20:11:38.281Z,18.67
2019-04-01T20:14:06.710Z,19.92
2019-04-01T20:16:34.640Z,21.10
2019-04-01T20:19:02.816Z,19.05
2019-04-01T20:21:30.845Z,19.92
2019-04-01T20:23:58.646Z,19.32
2019-04-01T20:26:28.622Z,20.17
2019-04-01T20:28:56.365Z,19.57
2019-04-01T20:31:25.532Z,20.70
2019-04-01T20:33:54.209Z,18.70
2019-04-01T20:36:28.353Z,17.62
2019-04-01T20:38:52.331Z,19.90
2019-04-01T20:41:21.258Z,17.52
2019-04-01T20:43:50.079Z,17.25
2019-04-01T20:46:19.169Z,18.87
2019-04-01T20:48:48.055Z,17.07
2019-04-01T20:51:15.815Z,17.20
2019-04-01T20:53:43.715Z,18.15
2019-04-01T20:56:12.734Z,17.60
2019-04-01T20:58:41.238Z,17.07
2019-04-01T21:01:10.165Z,16.70
2019-04-01T21:03:38.116Z,17.87
2019-04-01T21:06:06.023Z,16.15
2019-04-01T21:08:36.730Z,17.00
2019-04-01T21:11:04.900Z,15.83
2019-04-01T21:13:32.787Z,16.02
2019-04-01T21:16:01.351Z,15.78
2019-04-01T21:18:29.299Z,16.30
2019-04-01T21:20:57.223Z,15.58
2019-04-01T21:23:24.973Z,15.40
2019-04-01T21:25:52.852Z,15.75
2019-04-01T21:28:22.906Z,15.63
2019-04-01T21:30:50.648Z,14.50
2019-04-01T21:33:18.670Z,15.28
2019-04-01T21:35:46.427Z,14.87
2019-04-01T21:38:14.229Z,15.48
2019-04-01T21:40:42.259Z,15.72
2019-04-01T21:43:09.967Z,16.70
2019-04-01T21:45:37.678Z,16.60
2019-04-01T21:48:06.551Z,14.90
2019-04-01T21:50:35.518Z,14.13
2019-04-01T21:53:03.511Z,16.02
2019-04-01T21:55:32.326Z,15.63
2019-04-01T21:58:00.080Z,15.32
2019-04-01T22:00:38.995Z,15.13
2019-04-01T22:03:07.728Z,16.02
2019-04-01T22:05:35.745Z,19.02
2019-04-01T22:08:03.991Z,23.42
2019-04-01T22:10:32.222Z,26.55
2019-04-01T22:13:00.355Z,28.20
2019-04-01T22:15:28.250Z,27.17
2019-04-01T22:17:56.116Z,26.48
2019-04-01T22:20:23.937Z,25.97
2019-04-01T22:22:51.865Z,24.70
2019-04-01T22:25:19.666Z,23.55
2019-04-01T22:27:47.651Z,25.40
2019-04-01T22:30:17.101Z,24.80
2019-04-01T22:32:45.384Z,25.10
2019-04-01T22:35:13.344Z,23.87
2019-04-01T22:37:42.367Z,24.90
2019-04-01T22:40:10.917Z,24.90
2019-04-01T22:42:38.819Z,25.77
2019-04-01T22:45:07.664Z,25.23
2019-04-01T22:47:35.525Z,23.77
2019-04-01T22:50:03.603Z,24.37
2019-04-01T22:52:31.560Z,23.52
2019-04-01T22:54:59.801Z,22.75
2019-04-01T22:57:27.727Z,22.00
2019-04-01T22:59:55.955Z,23.18
2019-04-01T23:02:26.903Z,20.60
2019-04-01T23:04:55.399Z,19.60
2019-04-01T23:07:23.296Z,18.52
2019-04-01T23:09:51.181Z,18.40
2019-04-01T23:12:20.194Z,16.87
2019-04-01T23:14:51.406Z,17.05
2019-04-01T23:17:19.199Z,16.80
2019-04-01T23:19:50.821Z,17.23
2019-04-01T23:22:18.513Z,18.55
2019-04-01T23:24:46.543Z,16.82
2019-04-01T23:27:14.424Z,17.48
2019-04-01T23:29:42.296Z,18.90
2019-04-01T23:32:10.268Z,18.12
2019-04-01T23:34:38.458Z,17.42
2019-04-01T23:37:06.735Z,20.68
2019-04-01T23:39:36.621Z,18.62
2019-04-01T23:42:04.432Z,18.05
2019-04-01T23:44:32.105Z,19.62
2019-04-01T23:46:59.839Z,18.20
2019-04-01T23:49:30.198Z,19.00
2019-04-01T23:51:57.996Z,17.92
2019-04-01T23:54:25.912Z,19.73
2019-04-01T23:56:53.726Z,18.20
2019-04-01T23:59:23.670Z,17.55
